Time;durP1;ratioP1;P1;durP2;ratioP2;P2;SDS_P1;SDS_P2;PMS_P1;PMS_P2;Temp;Humidity;BMP_temperature;BMP_pressure;BME280_temperature;BME280_humidity;BME280_pressure;Samples;Min_cycle;Max_cycle;Signal;HPM_P1;HPM_P2
2021/06/10 00:00:28;;;;;;;27.85;24.85;;;16.90;99.90;;;18.42;83.36;101104.16;4938635;28;20082;-87
2021/06/10 00:03:15;;;;;;;24.60;21.85;;;17.00;99.90;;;18.50;83.08;101110.63;4938845;29;20058;-88
2021/06/10 00:05:55;;;;;;;26.58;22.73;;;17.00;99.90;;;18.54;82.58;101102.97;4954947;28;20468;-88
2021/06/10 00:08:51;;;;;;;26.63;23.77;;;17.10;99.90;;;18.57;82.60;101110.66;4938820;28;20035;-87
2021/06/10 00:11:25;;;;;;;28.25;25.25;;;17.10;99.90;;;18.59;82.52;101111.09;4922789;29;20031;-84
2021/06/10 00:13:54;;;;;;;26.98;23.77;;;17.10;99.90;;;18.63;81.92;101114.72;4954608;29;20031;-86
2021/06/10 00:16:23;;;;;;;25.73;22.83;;;17.10;99.90;;;18.62;81.88;101104.63;4944645;29;20074;-86
2021/06/10 00:18:57;;;;;;;24.95;22.27;;;17.10;99.90;;;18.58;82.03;101106.63;4955588;29;20047;-83
2021/06/10 00:21:31;;;;;;;27.80;24.80;;;17.10;99.90;;;18.62;82.43;101115.94;4957392;29;20039;-83
2021/06/10 00:23:57;;;;;;;26.88;22.63;;;17.10;99.90;;;18.54;82.89;101111.47;4953455;29;20122;-85
2021/06/10 00:26:28;;;;;;;26.00;21.55;;;17.10;99.90;;;18.56;82.89;101112.69;4954345;29;20031;-87
2021/06/10 00:28:57;;;;;;;26.33;22.40;;;17.00;99.90;;;18.44;83.35;101110.19;4953836;29;20090;-85
2021/06/10 00:31:33;;;;;;;25.20;21.30;;;17.00;99.90;;;18.36;83.73;101106.56;4955566;28;20636;-85
2021/06/10 00:34:01;;;;;;;27.15;24.25;;;16.90;99.90;;;18.35;83.79;101113.41;4937739;29;20036;-85
2021/06/10 00:36:31;;;;;;;27.95;23.05;;;16.90;99.90;;;18.29;83.86;101108.56;4946280;28;20538;-85
2021/06/10 00:39:15;;;;;;;30.98;27.33;;;16.90;99.90;;;18.26;84.00;101101.69;4938399;29;20604;-88
2021/06/10 00:42:12;;;;;;;29.95;26.80;;;16.80;99.90;;;18.20;84.06;101106.13;4938004;29;20241;-87
2021/06/10 00:44:48;;;;;;;30.25;26.88;;;16.80;99.90;;;18.14;84.55;101118.22;4955495;29;20031;-87
2021/06/10 00:47:36;;;;;;;25.45;22.15;;;16.70;99.90;;;18.02;85.22;101102.41;4938798;29;20035;-88
2021/06/10 00:50:19;;;;;;;32.33;26.15;;;16.60;99.90;;;17.96;85.78;101104.00;4941388;29;20493;-86
2021/06/10 00:53:30;;;;;;;27.73;23.30;;;16.50;99.90;;;17.91;86.04;101098.72;4941911;29;20035;-86
2021/06/10 00:56:25;;;;;;;24.48;21.85;;;16.50;99.90;;;17.83;86.01;101097.06;4957656;29;20039;-86
2021/06/10 00:58:54;;;;;;;31.98;27.17;;;16.40;99.90;;;17.82;86.30;101099.06;4941869;29;20102;-88
2021/06/10 01:01:31;;;;;;;28.73;25.63;;;16.40;99.90;;;17.72;86.22;101101.88;4942069;29;20114;-84
2021/06/10 01:04:07;;;;;;;30.15;26.27;;;16.30;99.90;;;17.69;86.77;101105.50;4957681;29;20049;-88
2021/06/10 01:07:29;;;;;;;35.17;27.63;;;16.30;99.90;;;17.69;87.25;101105.50;4941988;29;20094;-88
2021/06/10 01:10:11;;;;;;;27.17;24.27;;;16.20;99.90;;;17.61;87.41;101098.97;4940863;29;20035;-87
2021/06/10 01:13:05;;;;;;;30.42;24.63;;;16.20;99.90;;;17.59;87.43;101095.75;4946821;29;20043;-85
2021/06/10 01:15:44;;;;;;;33.30;27.83;;;16.10;99.90;;;17.56;87.52;101098.56;4933907;29;20031;-86
2021/06/10 01:18:16;;;;;;;40.90;29.75;;;16.10;99.90;;;17.58;87.70;101098.97;4941508;29;20045;-84
2021/06/10 01:21:03;;;;;;;30.30;26.70;;;16.10;99.90;;;17.53;87.93;101090.84;4940055;29;20102;-83
2021/06/10 01:24:09;;;;;;;35.67;28.85;;;16.10;99.90;;;17.53;87.79;101108.56;4956376;28;20023;-87
2021/06/10 01:27:35;;;;;;;29.30;26.15;;;16.10;99.90;;;17.40;87.92;101099.63;4934381;29;20049;-88
2021/06/10 01:30:35;;;;;;;33.15;28.20;;;16.00;99.90;;;17.35;88.23;101102.81;4954248;28;20027;-83
2021/06/10 01:33:18;;;;;;;33.38;26.85;;;15.90;99.90;;;17.24;88.51;101093.47;4952252;29;20035;-87
2021/06/10 01:36:13;;;;;;;29.38;25.30;;;15.90;99.90;;;17.18;88.70;101089.38;4957116;28;20480;-87
2021/06/10 01:38:48;;;;;;;34.05;30.35;;;15.80;99.90;;;17.22;88.87;101097.88;4940983;29;20027;-85
2021/06/10 01:41:33;;;;;;;30.87;27.50;;;15.80;99.90;;;17.16;88.97;101091.00;4941378;29;20023;-87
2021/06/10 01:44:10;;;;;;;35.20;30.73;;;15.80;99.90;;;17.17;88.77;101095.44;4952560;28;20035;-85
2021/06/10 01:46:43;;;;;;;30.58;27.25;;;15.70;99.90;;;17.10;89.00;101084.91;4936257;29;20024;-86
2021/06/10 01:49:19;;;;;;;30.63;27.13;;;15.70;99.90;;;17.06;89.40;101077.59;4939419;28;20031;-83
2021/06/10 01:51:58;;;;;;;34.15;30.42;;;15.60;99.90;;;17.10;89.34;101084.09;4950500;29;20031;-85
2021/06/10 01:54:26;;;;;;;37.22;29.25;;;15.60;99.90;;;17.10;89.14;101076.44;4956450;29;20031;-85
2021/06/10 01:57:05;;;;;;;34.38;29.65;;;15.70;99.90;;;17.15;89.17;101084.53;4939364;29;20095;-87
2021/06/10 01:59:40;;;;;;;34.53;29.98;;;15.70;99.90;;;17.11;89.80;101075.25;4927519;29;20051;-85
2021/06/10 02:02:09;;;;;;;34.85;29.60;;;15.60;99.90;;;17.04;89.78;101078.00;4954646;28;20090;-86
2021/06/10 02:04:48;;;;;;;35.38;30.63;;;15.60;99.90;;;17.00;90.31;101071.53;4939574;29;20130;-86
2021/06/10 02:07:23;;;;;;;32.03;28.63;;;15.60;99.90;;;17.03;90.18;101078.38;4938759;29;20043;-85
2021/06/10 02:10:24;;;;;;;32.00;27.27;;;15.70;99.90;;;17.05;90.31;101079.59;4940003;29;20027;-84
2021/06/10 02:12:58;;;;;;;30.30;25.13;;;15.60;99.90;;;17.05;90.37;101076.00;4950690;29;20039;-85
2021/06/10 02:15:44;;;;;;;32.55;27.95;;;15.60;99.90;;;17.04;90.46;101065.91;4940213;29;20114;-88
2021/06/10 02:18:40;;;;;;;31.90;26.90;;;15.60;99.90;;;17.04;90.35;101063.09;4937046;29;20112;-87
2021/06/10 02:21:23;;;;;;;28.58;25.23;;;15.60;99.90;;;16.98;90.66;101064.66;4947327;28;20100;-87
2021/06/10 02:24:00;;;;;;;34.45;27.17;;;15.50;99.90;;;16.88;90.69;101062.56;4942452;29;20031;-86
2021/06/10 02:26:40;;;;;;;32.85;27.80;;;15.50;99.90;;;16.86;90.96;101060.13;4939011;29;20099;-86
2021/06/10 02:29:31;;;;;;;29.60;26.38;;;15.50;99.90;;;16.83;90.94;101055.25;4938714;28;20051;-85
2021/06/10 02:31:57;;;;;;;32.15;25.95;;;15.40;99.90;;;16.77;90.90;101063.28;4953134;28;20491;-88
2021/06/10 02:34:24;;;;;;;36.05;29.98;;;15.30;99.90;;;16.72;91.49;101062.84;4955799;28;20039;-86
2021/06/10 02:37:02;;;;;;;34.80;27.48;;;15.30;99.90;;;16.76;91.68;101058.03;4938420;29;20027;-86
2021/06/10 02:39:38;;;;;;;36.10;29.35;;;15.30;99.90;;;16.73;91.74;101056.78;4919571;29;20046;-86
2021/06/10 02:42:11;;;;;;;37.03;29.90;;;15.30;99.90;;;16.75;91.95;101043.13;4938828;29;20027;-87
2021/06/10 02:44:40;;;;;;;37.50;32.28;;;15.30;99.90;;;16.75;91.81;101054.41;4938438;29;20031;-84
2021/06/10 02:47:39;;;;;;;36.22;31.83;;;15.30;99.90;;;16.81;91.60;101063.31;4943392;29;20035;-85
2021/06/10 02:50:26;;;;;;;33.40;25.60;;;15.30;99.90;;;16.79;91.60;101057.25;4938899;29;20111;-82
2021/06/10 02:53:14;;;;;;;39.20;30.70;;;15.30;99.90;;;16.76;91.54;101058.03;4955422;28;20038;-86
2021/06/10 02:55:52;;;;;;;37.28;30.85;;;15.30;99.90;;;16.77;91.47;101054.81;4924586;29;20047;-90
2021/06/10 02:58:22;;;;;;;37.38;31.77;;;15.30;99.90;;;16.75;91.69;101056.41;4939454;29;20113;-88
2021/06/10 03:00:50;;;;;;;37.85;32.00;;;15.30;99.90;;;16.79;91.63;101058.03;4939258;29;20071;-86
2021/06/10 03:03:24;;;;;;;34.28;28.45;;;15.40;99.90;;;16.81;91.42;101055.66;4938678;28;20027;-84
2021/06/10 03:06:01;;;;;;;39.17;31.45;;;15.30;99.90;;;16.87;91.35;101056.09;4954815;28;20023;-82
2021/06/10 03:08:36;;;;;;;34.67;28.52;;;15.40;99.90;;;16.92;90.90;101063.41;4939216;29;20027;-87
2021/06/10 03:11:11;;;;;;;32.53;26.00;;;15.50;99.90;;;16.92;90.94;101060.59;4937958;29;20117;-85
2021/06/10 03:13:39;;;;;;;31.77;28.27;;;15.40;99.90;;;16.90;90.57;101060.97;4939167;29;20038;-86
2021/06/10 03:16:08;;;;;;;33.20;25.63;;;15.40;99.90;;;16.90;90.61;101058.13;4942764;28;20039;-81
2021/06/10 03:27:04;;;;;;;33.35;28.00;;;15.40;99.90;;;16.85;90.47;101058.53;4877603;29;20036;-86
2021/06/10 03:35:56;;;;;;;;;;;;;;;;;;;;;
2021/06/10 03:39:16;;;;;;;;;;;;;;;;;;;;;
2021/06/10 03:42:52;;;;;;;36.60;29.75;;;15.20;99.90;;;16.54;91.73;101044.91;4854902;29;20184;-86
2021/06/10 03:46:27;;;;;;;36.47;30.08;;;15.10;99.90;;;16.54;91.65;101047.72;4874955;29;20053;-88
2021/06/10 04:00:05;;;;;;;41.17;30.95;;;15.00;99.90;;;16.41;92.45;101050.00;4975596;28;20057;-88
2021/06/10 04:02:38;;;;;;;33.72;28.10;;;15.00;99.90;;;16.46;91.91;101054.50;4938592;29;20039;-86
2021/06/10 04:05:08;;;;;;;33.58;27.77;;;15.00;99.90;;;16.48;92.13;101054.91;4938909;29;20066;-86
2021/06/10 04:07:39;;;;;;;34.65;29.75;;;15.00;99.90;;;16.49;92.21;101051.72;4938619;29;20126;-84
2021/06/10 04:10:12;;;;;;;36.38;30.80;;;15.10;99.90;;;16.56;92.22;101062.28;4955552;29;20050;-85
2021/06/10 04:12:38;;;;;;;40.08;33.10;;;15.00;99.90;;;16.56;92.56;101054.66;4939068;29;20041;-87
2021/06/10 04:15:07;;;;;;;40.50;32.00;;;15.10;99.90;;;16.58;92.13;101048.59;4938518;29;20398;-86
2021/06/10 04:17:35;;;;;;;34.17;28.50;;;15.20;99.90;;;16.67;91.71;101058.34;4938872;29;20035;-85
2021/06/10 04:20:02;;;;;;;41.42;35.42;;;15.20;99.90;;;16.74;91.62;101049.13;4938740;29;20110;-84
2021/06/10 04:22:28;;;;;;;39.13;32.30;;;15.30;99.90;;;16.85;90.98;101050.88;4937970;29;20129;-85
2021/06/10 04:24:59;;;;;;;39.95;29.88;;;15.40;99.90;;;16.98;90.81;101059.84;4938824;29;20031;-84
2021/06/10 04:27:25;;;;;;;44.17;35.60;;;15.40;99.90;;;16.98;90.81;101057.00;4954953;29;20035;-82
2021/06/10 04:29:52;;;;;;;42.00;33.15;;;15.60;99.90;;;17.12;90.00;101059.09;4939055;29;20034;-82
2021/06/10 04:32:19;;;;;;;40.58;31.92;;;15.60;99.90;;;17.25;89.50;101061.22;4939405;29;20487;-85
2021/06/10 04:34:55;;;;;;;37.08;30.88;;;15.70;99.90;;;17.42;88.77;101061.72;4939708;29;20103;-88
2021/06/10 04:37:22;;;;;;;38.88;33.85;;;15.70;99.90;;;17.60;88.01;101057.81;4940392;29;20023;-87
2021/06/10 04:39:49;;;;;;;39.58;31.90;;;16.00;99.90;;;17.65;87.71;101065.91;4956382;28;20046;-87
2021/06/10 04:42:16;;;;;;;41.67;31.27;;;16.10;99.90;;;17.78;87.24;101066.38;4957102;29;20483;-87
2021/06/10 04:44:42;;;;;;;34.92;29.83;;;16.20;99.90;;;17.97;86.65;101068.88;4941338;29;20034;-86
2021/06/10 04:47:08;;;;;;;36.47;29.90;;;16.30;99.90;;;18.09;86.29;101071.34;4941716;29;20027;-88
2021/06/10 04:49:36;;;;;;;33.72;28.38;;;16.40;99.90;;;18.14;85.70;101068.09;4959333;29;20035;-88
2021/06/10 04:52:09;;;;;;;35.92;30.67;;;16.40;99.90;;;18.16;84.83;101062.06;4945296;29;20094;-85
2021/06/10 04:54:35;;;;;;;38.65;30.88;;;16.50;99.90;;;18.18;84.43;101059.63;4963627;29;20058;-90
2021/06/10 04:57:33;;;;;;;39.03;31.10;;;16.60;99.90;;;18.20;84.40;101063.72;4943043;29;20023;-87
2021/06/10 05:00:00;;;;;;;43.03;32.60;;;16.60;99.90;;;18.22;84.11;101057.63;4954891;28;20360;-87
2021/06/10 05:02:54;;;;;;;37.63;31.00;;;16.70;99.90;;;18.44;83.51;101065.75;4939547;29;20027;-87
2021/06/10 05:05:26;;;;;;;36.58;29.35;;;16.90;99.90;;;18.49;82.85;101063.75;4955635;29;20073;-86
2021/06/10 05:07:55;;;;;;;34.40;28.88;;;16.90;99.90;;;18.69;82.22;101062.16;4940191;29;20038;-86
2021/06/10 05:10:24;;;;;;;36.45;31.10;;;17.10;99.90;;;18.81;81.06;101056.94;4956213;29;20043;-87
2021/06/10 05:12:57;;;;;;;32.40;27.05;;;17.20;99.90;;;19.05;81.11;101063.78;4941098;29;20126;-87
2021/06/10 05:15:25;;;;;;;32.78;27.55;;;17.40;99.90;;;19.18;80.20;101058.50;4939462;29;20035;-86
2021/06/10 05:18:27;;;;;;;33.53;27.73;;;17.40;99.90;;;19.34;79.75;101070.22;4940485;29;20038;-86
2021/06/10 05:20:53;;;;;;;39.10;28.75;;;17.60;99.90;;;19.54;78.23;101071.41;4940715;28;20508;-86
2021/06/10 05:23:19;;;;;;;31.77;25.73;;;17.80;99.90;;;19.75;78.02;101062.03;4940379;29;20047;-89
2021/06/10 05:25:45;;;;;;;32.53;27.20;;;18.00;99.90;;;19.96;76.58;101076.13;4940186;29;20027;-87
2021/06/10 05:28:12;;;;;;;42.25;28.23;;;18.10;99.90;;;20.10;75.96;101073.19;4956314;28;20126;-85
2021/06/10 05:30:38;;;;;;;36.03;26.42;;;18.30;99.90;;;20.16;74.97;101071.56;4941047;29;20090;-88
2021/06/10 05:33:12;;;;;;;36.28;26.20;;;18.50;99.90;;;20.30;74.57;101065.84;4957122;28;20031;-88
2021/06/10 05:35:38;;;;;;;30.35;25.23;;;18.60;99.90;;;20.60;74.48;101082.28;4960632;28;20185;-87
2021/06/10 05:38:07;;;;;;;34.13;26.98;;;18.80;99.90;;;20.54;73.66;101075.41;4943107;29;20031;-88
2021/06/10 05:40:33;;;;;;;27.15;23.83;;;18.90;99.90;;;20.87;73.10;101077.56;4968927;28;20058;-89
2021/06/10 05:43:02;;;;;;;37.10;26.83;;;19.10;99.90;;;20.97;72.90;101076.69;4959123;28;20043;-83
2021/06/10 05:45:28;;;;;;;30.17;24.15;;;19.30;99.90;;;21.33;71.72;101082.06;4956512;28;20031;-88
2021/06/10 05:47:54;;;;;;;31.45;25.00;;;19.50;99.90;;;21.44;70.92;101083.59;4941579;28;20093;-86
2021/06/10 05:50:20;;;;;;;35.28;24.58;;;19.60;99.90;;;21.75;69.87;101089.31;4957394;28;20451;-86
2021/06/10 05:52:54;;;;;;;32.88;25.48;;;19.90;99.90;;;21.90;68.37;101080.22;4942561;29;20154;-86
2021/06/10 05:55:21;;;;;;;35.30;24.05;;;20.10;99.90;;;22.23;68.18;101083.47;4943123;29;20027;-85
2021/06/10 05:57:48;;;;;;;29.27;24.38;;;20.30;99.90;;;22.57;66.60;101084.19;4943171;29;20114;-86
2021/06/10 06:00:31;;;;;;;;;;;;;;;;;;;;;
2021/06/10 06:03:08;;;;;;;22.67;19.95;;;20.90;99.90;;;23.44;64.65;101094.56;4959753;29;20287;-87
2021/06/10 06:05:36;;;;;;;24.85;19.60;;;21.30;99.90;;;23.90;62.60;101090.81;4963264;28;20058;-85
2021/06/10 06:08:04;;;;;;;20.83;17.95;;;21.70;99.90;;;24.32;62.74;101094.81;4942295;29;20118;-87
2021/06/10 06:10:33;;;;;;;28.45;18.35;;;22.10;99.90;;;24.63;62.17;101093.28;4956857;28;20086;-85
2021/06/10 06:13:11;;;;;;;23.08;17.48;;;22.30;99.90;;;24.92;60.95;101088.53;4962539;28;20146;-85
2021/06/10 06:15:51;;;;;;;20.17;16.35;;;22.60;99.90;;;25.15;59.65;101085.47;4942640;29;20031;-87
2021/06/10 06:18:19;;;;;;;22.45;18.08;;;22.80;99.90;;;25.42;59.52;101090.09;4959189;29;20141;-86
2021/06/10 06:20:54;;;;;;;22.85;16.30;;;23.20;99.90;;;25.74;58.36;101092.91;4958210;29;20027;-87
2021/06/10 06:23:31;;;;;;;22.98;18.00;;;23.40;99.90;;;25.93;56.05;101091.16;4959284;29;20383;-86
2021/06/10 06:26:07;;;;;;;26.58;20.75;;;23.60;99.90;;;25.78;54.66;101093.63;4959109;29;20035;-86
2021/06/10 06:28:41;;;;;;;20.77;17.60;;;23.70;99.90;;;25.86;54.92;101091.34;4942422;29;20400;-85
2021/06/10 06:31:15;;;;;;;22.85;17.80;;;23.80;99.90;;;26.20;53.35;101085.84;4941310;29;20042;-86
2021/06/10 06:33:41;;;;;;;24.40;18.35;;;24.00;99.90;;;26.35;52.61;101084.19;4957019;29;20550;-83
2021/06/10 06:36:08;;;;;;;19.52;15.27;;;24.20;99.90;;;26.68;52.22;101090.50;4957424;28;20033;-86
2021/06/10 06:38:44;;;;;;;;;;;;;;;;;;;;;
2021/06/10 06:41:16;;;;;;;13.57;10.93;;;24.40;99.90;;;26.98;48.88;101101.38;4957908;28;20027;-88
2021/06/10 06:43:45;;;;;;;16.83;14.40;;;24.60;99.90;;;27.00;45.81;101098.06;4941525;29;20019;-88
2021/06/10 06:46:11;;;;;;;16.00;11.88;;;24.70;97.40;;;27.11;45.60;101107.09;4939873;29;20038;-86
2021/06/10 06:48:38;;;;;;;11.52;10.23;;;24.80;96.40;;;27.48;43.87;101106.25;4940305;29;20130;-86
2021/06/10 06:51:10;;;;;;;12.77;10.65;;;25.00;91.00;;;27.45;44.64;101104.31;4940805;29;20093;-86
2021/06/10 06:53:37;;;;;;;13.02;7.05;;;25.10;93.00;;;27.56;44.72;101113.34;4958079;29;20443;-88
2021/06/10 06:56:09;;;;;;;11.25;8.70;;;25.20;93.40;;;28.00;44.25;101111.28;4939499;29;20288;-86
2021/06/10 06:58:37;;;;;;;11.82;8.35;;;25.50;92.70;;;28.13;42.33;101123.56;4939423;29;20030;-87
2021/06/10 07:01:04;;;;;;;10.90;7.97;;;25.60;85.20;;;28.30;41.43;101123.34;4940550;29;20051;-88
2021/06/10 07:03:30;;;;;;;12.23;7.75;;;25.70;79.80;;;28.32;40.58;101120.81;4957124;28;20491;-85
2021/06/10 07:05:59;;;;;;;7.95;5.70;;;25.90;77.10;;;28.29;39.65;101116.78;4941038;29;20039;-86
2021/06/10 07:08:28;;;;;;;6.32;5.38;;;25.90;72.20;;;27.82;40.13;101128.38;4957527;28;20035;-87
2021/06/10 07:10:56;;;;;;;7.20;6.00;;;25.80;70.50;;;27.89;41.06;101127.34;4939653;29;20403;-84
2021/06/10 07:13:26;;;;;;;6.80;3.42;;;25.70;72.00;;;28.13;36.46;101122.75;4939824;29;20039;-85
2021/06/10 07:15:54;;;;;;;12.95;4.65;;;25.90;63.20;;;28.69;38.01;101137.00;4939936;29;20039;-86
2021/06/10 07:18:22;;;;;;;5.35;4.20;;;26.10;66.60;;;29.11;38.40;101123.75;4939606;29;20027;-88
2021/06/10 07:20:48;;;;;;;5.53;3.85;;;26.50;67.80;;;29.41;36.81;101127.84;4939521;29;20191;-86
2021/06/10 07:23:14;;;;;;;4.20;3.45;;;26.80;64.60;;;28.81;38.69;101118.84;4942616;29;20027;-86
2021/06/10 07:25:41;;;;;;;3.47;2.92;;;26.80;65.90;;;29.28;37.65;101124.31;4941003;29;20046;-86
2021/06/10 07:28:07;;;;;;;4.93;4.22;;;26.90;64.30;;;29.43;35.39;101118.75;4940440;29;20063;-91
2021/06/10 07:30:34;;;;;;;5.22;3.85;;;27.00;60.00;;;29.56;37.33;101120.22;4940727;29;20465;-88
2021/06/10 07:33:03;;;;;;;4.47;4.07;;;27.00;64.00;;;29.65;36.02;101117.34;4960856;29;20095;-85
2021/06/10 07:35:32;;;;;;;5.00;3.08;;;27.20;61.80;;;29.73;35.22;101115.72;4960298;29;20419;-87
2021/06/10 07:38:02;;;;;;;4.03;2.50;;;27.20;60.00;;;29.61;36.77;101118.75;4939962;29;20222;-90
2021/06/10 07:40:29;;;;;;;5.07;3.38;;;27.20;62.30;;;29.71;35.42;101120.38;4957238;28;20046;-89
2021/06/10 07:42:59;;;;;;;8.95;4.28;;;27.20;59.70;;;29.45;37.23;101136.31;4940459;29;20023;-84
2021/06/10 07:45:30;;;;;;;8.13;3.95;;;27.30;61.70;;;29.57;36.78;101124.66;4941261;29;20118;-86
2021/06/10 07:47:59;;;;;;;4.40;2.97;;;27.30;61.10;;;30.29;34.83;101121.00;4958465;29;20034;-92
2021/06/10 07:50:26;;;;;;;9.43;4.13;;;27.70;59.40;;;29.11;36.44;101126.63;4958380;28;20079;-89
2021/06/10 07:52:53;;;;;;;7.53;4.22;;;27.40;59.30;;;29.46;36.47;101117.78;4952348;28;20031;-83
2021/06/10 07:55:21;;;;;;;5.43;3.42;;;27.40;59.90;;;29.36;38.12;101119.84;4974049;28;20448;-89
2021/06/10 07:57:50;;;;;;;7.28;3.83;;;27.30;62.10;;;29.77;37.47;101127.09;4954682;28;20056;-87
2021/06/10 08:00:20;;;;;;;7.43;4.28;;;27.40;61.70;;;30.30;35.18;101124.69;4953411;28;20031;-83
2021/06/10 08:02:47;;;;;;;5.18;4.20;;;27.70;59.30;;;30.42;34.74;101125.78;4942964;29;20043;-87
2021/06/10 08:05:14;;;;;;;7.78;4.05;;;27.80;58.50;;;30.68;33.62;101130.69;4939899;29;20035;-87
2021/06/10 08:07:45;;;;;;;4.60;3.15;;;28.00;57.00;;;31.02;34.24;101128.66;4957171;29;20035;-90
2021/06/10 08:10:14;;;;;;;5.20;3.45;;;28.20;58.10;;;31.50;34.03;101127.41;4939548;29;20122;-86
2021/06/10 08:12:42;;;;;;;4.93;3.40;;;28.60;58.40;;;31.35;33.83;101129.41;4956513;29;20055;-85
2021/06/10 08:15:08;;;;;;;5.22;3.10;;;28.70;57.60;;;31.19;35.10;101133.53;4940507;29;20031;-86
2021/06/10 08:17:37;;;;;;;4.70;3.13;;;28.80;58.90;;;31.44;33.74;101134.31;4956724;28;20104;-88
2021/06/10 08:20:08;;;;;;;4.40;2.60;;;28.80;56.40;;;31.51;34.57;101136.88;4956014;28;20468;-87
2021/06/10 08:22:34;;;;;;;4.57;3.03;;;29.00;58.00;;;31.95;33.72;101137.03;4940554;29;20418;-88
2021/06/10 08:24:59;;;;;;;2.83;2.45;;;29.20;57.50;;;32.26;33.56;101131.63;4941246;29;20031;-87
2021/06/10 08:27:26;;;;;;;4.78;2.28;;;29.40;57.20;;;32.47;32.45;101133.31;4956526;28;20031;-88
2021/06/10 08:29:52;;;;;;;5.05;2.15;;;29.60;55.90;;;32.27;32.35;101127.44;4955812;28;20045;-87
2021/06/10 08:32:18;;;;;;;5.07;3.00;;;29.50;55.00;;;32.15;30.69;101128.50;4940282;29;20030;-86
2021/06/10 08:34:45;;;;;;;7.22;2.42;;;29.50;52.70;;;32.25;31.00;101127.91;4939291;28;20042;-89
2021/06/10 08:37:11;;;;;;;5.25;2.63;;;29.50;52.90;;;31.88;32.41;101121.66;4956753;28;20086;-85
2021/06/10 08:39:36;;;;;;;4.00;2.75;;;29.50;54.90;;;31.79;32.49;101133.28;4939161;29;20479;-86
2021/06/10 08:42:03;;;;;;;4.90;2.47;;;29.40;53.90;;;31.56;32.02;101131.25;4939949;29;20456;-85
2021/06/10 08:44:35;;;;;;;5.60;3.05;;;29.20;53.50;;;31.94;31.35;101135.41;4939726;29;20035;-85
2021/06/10 08:47:04;;;;;;;5.45;2.55;;;29.30;52.60;;;31.32;32.72;101139.84;4940208;28;20059;-85
2021/06/10 08:49:31;;;;;;;5.85;2.75;;;29.20;54.00;;;30.96;32.20;101134.28;4938988;29;20451;-86
2021/06/10 08:51:58;;;;;;;5.07;2.80;;;29.10;53.00;;;31.57;32.18;101129.94;4940546;29;20491;-87
2021/06/10 08:54:24;;;;;;;6.88;3.13;;;29.10;53.80;;;31.95;31.41;101134.13;4939548;29;20361;-88
2021/06/10 08:56:50;;;;;;;6.85;2.80;;;29.30;53.00;;;32.04;31.75;101134.88;4940045;29;20480;-88
2021/06/10 08:59:16;;;;;;;4.35;2.05;;;29.40;53.40;;;31.84;33.25;101137.59;4956370;28;20028;-87
2021/06/10 09:01:44;;;;;;;11.38;2.83;;;29.30;55.50;;;31.52;32.83;101136.41;4955418;28;20043;-88
2021/06/10 09:04:13;;;;;;;4.68;2.70;;;29.20;54.20;;;32.40;34.47;101138.72;4957272;29;20027;-88
2021/06/10 09:07:07;;;;;;;6.90;2.92;;;29.60;57.30;;;31.58;32.07;101142.28;4941327;29;20512;-89
2021/06/10 09:09:41;;;;;;;7.35;3.53;;;29.50;52.70;;;31.56;31.66;101134.13;4957977;28;20058;-85
2021/06/10 09:12:12;;;;;;;8.98;2.80;;;29.50;52.00;;;32.27;31.97;101133.22;4943713;29;20034;-87
2021/06/10 09:14:58;;;;;;;4.43;3.13;;;29.70;53.80;;;32.33;31.46;101146.44;4958777;29;20089;-84
2021/06/10 09:17:34;;;;;;;5.38;2.90;;;29.90;52.30;;;32.12;32.09;101141.84;4943515;29;20448;-89
2021/06/10 09:20:27;;;;;;;6.15;3.28;;;29.80;52.60;;;31.94;31.36;101147.78;4943792;29;20034;-86
2021/06/10 09:23:23;;;;;;;7.40;3.10;;;29.70;51.80;;;31.60;33.47;101137.59;4939106;29;20043;-89
2021/06/10 09:26:05;;;;;;;4.95;2.60;;;29.60;53.60;;;32.94;31.92;101143.06;4943528;29;20030;-90
2021/06/10 09:28:37;;;;;;;4.63;2.78;;;30.00;54.20;;;33.38;29.60;101137.97;4943504;29;20035;-87
2021/06/10 09:31:03;;;;;;;5.75;2.67;;;30.40;51.50;;;32.27;30.03;101136.13;4943143;29;20052;-89
2021/06/10 09:33:43;;;;;;;3.53;2.15;;;29.80;50.30;;;31.25;31.73;101139.41;4943430;29;20491;-88
2021/06/10 09:36:20;;;;;;;4.97;2.13;;;29.10;52.30;;;31.42;32.45;101126.16;4943280;29;20046;-89
2021/06/10 09:39:14;;;;;;;4.70;2.30;;;29.20;53.50;;;31.75;30.09;101132.69;4960306;29;20074;-86
2021/06/10 09:42:12;;;;;;;2.97;2.00;;;29.50;50.60;;;32.41;30.51;101132.41;4943636;29;20062;-88
2021/06/10 09:44:50;;;;;;;4.90;2.70;;;29.70;51.60;;;32.16;29.71;101130.91;4944001;29;20487;-89
2021/06/10 09:47:17;;;;;;;6.00;2.80;;;29.80;50.80;;;32.15;30.56;101142.94;4943674;29;20062;-88
2021/06/10 09:49:43;;;;;;;5.30;2.60;;;29.70;51.40;;;32.31;31.03;101145.38;4959428;28;20412;-87
2021/06/10 09:52:09;;;;;;;3.72;2.53;;;29.70;52.10;;;31.04;32.69;101132.66;4943071;29;20031;-86
2021/06/10 09:54:43;;;;;;;3.97;2.30;;;28.90;53.30;;;30.84;33.00;101129.50;4942910;29;20510;-88
2021/06/10 09:57:15;;;;;;;5.80;2.85;;;28.50;54.10;;;30.48;33.89;101132.50;4942662;29;20027;-88
2021/06/10 09:59:48;;;;;;;4.25;2.95;;;28.40;54.40;;;30.52;32.90;101133.13;4959710;28;20131;-83
2021/06/10 10:02:21;;;;;;;5.70;2.30;;;28.40;52.90;;;31.20;31.29;101134.31;4948777;29;20059;-84
2021/06/10 10:05:09;;;;;;;3.72;2.65;;;28.70;52.20;;;31.49;32.24;101134.47;4963236;28;20023;-78
2021/06/10 10:07:38;;;;;;;3.13;1.83;;;28.90;53.10;;;31.80;31.34;101126.22;4963236;29;20042;-87
2021/06/10 10:10:09;;;;;;;3.20;2.38;;;29.20;52.20;;;31.55;30.56;101135.41;4965153;29;20043;-82
2021/06/10 10:12:40;;;;;;;3.90;2.63;;;29.10;50.70;;;31.57;31.03;101129.13;4957554;28;20023;-85
2021/06/10 10:15:07;;;;;;;3.45;2.45;;;29.10;51.40;;;31.78;30.89;101125.94;4956062;29;20046;-85
2021/06/10 10:17:33;;;;;;;5.53;2.25;;;29.20;51.90;;;31.32;31.10;101124.63;4955969;29;20374;-89
2021/06/10 10:19:59;;;;;;;5.30;2.55;;;28.90;51.60;;;30.25;33.17;101131.06;4951461;29;20038;-88
2021/06/10 10:22:26;;;;;;;6.53;3.13;;;28.20;53.40;;;28.91;34.48;101129.13;4949536;29;20050;-90
2021/06/10 10:24:53;;;;;;;8.13;3.28;;;27.40;53.00;;;28.77;34.96;101126.81;4958467;28;20027;-85
2021/06/10 10:27:23;;;;;;;4.03;2.75;;;27.00;54.80;;;28.64;35.95;101131.84;4957247;29;20089;-85
2021/06/10 10:29:50;;;;;;;4.60;2.80;;;26.80;56.60;;;29.54;34.59;101125.63;4940947;29;20506;-87
2021/06/10 10:32:28;;;;;;;7.10;2.70;;;27.20;55.40;;;30.53;34.04;101126.09;4940272;29;20039;-85
2021/06/10 10:35:27;;;;;;;5.43;2.60;;;27.80;55.80;;;31.38;32.52;101131.31;4939845;29;20035;-85
2021/06/10 10:37:56;;;;;;;4.43;2.53;;;28.40;54.50;;;31.94;30.79;101132.53;4957105;28;20030;-85
2021/06/10 10:40:25;;;;;;;6.25;2.50;;;29.00;52.30;;;32.17;30.38;101143.28;4958603;28;20027;-85
2021/06/10 10:42:52;;;;;;;4.45;2.25;;;29.30;51.60;;;32.45;29.04;101124.34;4941733;29;20038;-88
2021/06/10 10:45:29;;;;;;;7.20;2.72;;;29.50;50.10;;;32.48;29.90;101125.44;4944201;29;20047;-88
2021/06/10 10:48:01;;;;;;;3.28;2.30;;;29.60;51.00;;;31.83;30.01;101119.47;4945856;29;20035;-89
2021/06/10 10:50:53;;;;;;;7.10;2.22;;;29.20;50.00;;;29.77;33.20;101113.50;4959610;29;20099;-89
2021/06/10 10:53:23;;;;;;;4.20;2.33;;;28.20;52.60;;;29.59;33.36;101112.69;4956848;29;20043;-87
2021/06/10 10:56:10;;;;;;;4.60;2.17;;;27.70;52.80;;;30.31;31.67;101109.78;4955646;28;20035;-84
2021/06/10 10:58:40;;;;;;;4.30;2.13;;;27.90;52.80;;;31.02;30.02;101105.59;4958035;29;20033;-85
2021/06/10 11:01:10;;;;;;;6.10;2.20;;;28.30;50.30;;;31.40;29.51;101093.31;4939190;29;20027;-82
2021/06/10 11:03:44;;;;;;;2.47;1.83;;;28.70;50.20;;;31.87;29.62;101090.38;4956497;29;20105;-87
2021/06/10 11:06:26;;;;;;;5.30;2.63;;;29.20;49.30;;;32.58;28.25;101098.03;4938082;29;20373;-85